sensor_id;sensor_type;location;lat;lon;timestamp;pressure;altitude;pressure_sealevel;temperature;humidity
25420;BME280;13354;48.174;11.566;2022-11-20T00:00:57;95135.44;;;6.47;82.09
25420;BME280;13354;48.174;11.566;2022-11-20T00:03:29;95134.25;;;6.50;81.78
25420;BME280;13354;48.174;11.566;2022-11-20T00:05:59;95134.47;;;6.63;80.91
25420;BME280;13354;48.174;11.566;2022-11-20T00:08:25;95140.34;;;6.65;81.19
25420;BME280;13354;48.174;11.566;2022-11-20T00:10:50;95140.19;;;6.52;81.51
25420;BME280;13354;48.174;11.566;2022-11-20T00:13:16;95145.34;;;6.45;82.10
25420;BME280;13354;48.174;11.566;2022-11-20T00:15:42;95143.72;;;6.59;81.15
25420;BME280;13354;48.174;11.566;2022-11-20T00:18:08;95140.19;;;6.52;81.22
25420;BME280;13354;48.174;11.566;2022-11-20T00:20:33;95137.34;;;6.68;80.84
25420;BME280;13354;48.174;11.566;2022-11-20T00:22:59;95144.53;;;6.60;81.57
25420;BME280;13354;48.174;11.566;2022-11-20T00:26:06;95149.97;;;6.58;80.67
25420;BME280;13354;48.174;11.566;2022-11-20T00:31:35;95151.31;;;6.54;81.37
25420;BME280;13354;48.174;11.566;2022-11-20T00:34:01;95156.31;;;6.64;80.88
25420;BME280;13354;48.174;11.566;2022-11-20T00:36:28;95146.22;;;6.38;82.07
25420;BME280;13354;48.174;11.566;2022-11-20T00:38:56;95153.13;;;6.39;82.22
25420;BME280;13354;48.174;11.566;2022-11-20T00:41:34;95153.66;;;6.34;82.69
25420;BME280;13354;48.174;11.566;2022-11-20T00:44:00;95152.75;;;6.42;82.60
25420;BME280;13354;48.174;11.566;2022-11-20T00:46:27;95156.84;;;6.44;82.43
25420;BME280;13354;48.174;11.566;2022-11-20T00:48:53;95152.88;;;6.63;81.76
25420;BME280;13354;48.174;11.566;2022-11-20T00:51:21;95158.13;;;6.48;82.31
25420;BME280;13354;48.174;11.566;2022-11-20T00:54:18;95159.41;;;6.52;82.06
25420;BME280;13354;48.174;11.566;2022-11-20T00:56:43;95169.28;;;6.65;81.74
25420;BME280;13354;48.174;11.566;2022-11-20T00:59:09;95167.66;;;6.64;81.12
25420;BME280;13354;48.174;11.566;2022-11-20T01:01:36;95166.19;;;6.62;80.93
25420;BME280;13354;48.174;11.566;2022-11-20T01:04:02;95171.72;;;6.37;81.88
25420;BME280;13354;48.174;11.566;2022-11-20T01:06:33;95174.06;;;6.47;82.37
25420;BME280;13354;48.174;11.566;2022-11-20T01:09:02;95167.75;;;6.56;80.94
25420;BME280;13354;48.174;11.566;2022-11-20T01:11:33;95170.38;;;6.56;80.93
25420;BME280;13354;48.174;11.566;2022-11-20T01:14:00;95173.63;;;6.58;80.51
25420;BME280;13354;48.174;11.566;2022-11-20T01:16:40;95173.50;;;6.37;81.68
25420;BME280;13354;48.174;11.566;2022-11-20T01:19:09;95180.09;;;6.33;81.96
25420;BME280;13354;48.174;11.566;2022-11-20T01:21:37;95179.78;;;6.50;81.54
25420;BME280;13354;48.174;11.566;2022-11-20T01:24:04;95187.56;;;6.44;80.66
25420;BME280;13354;48.174;11.566;2022-11-20T01:26:32;95184.66;;;6.39;81.50
25420;BME280;13354;48.174;11.566;2022-11-20T01:28:59;95185.41;;;6.47;80.61
25420;BME280;13354;48.174;11.566;2022-11-20T01:31:34;95176.44;;;6.57;80.74
25420;BME280;13354;48.174;11.566;2022-11-20T01:34:05;95178.88;;;6.58;80.31
25420;BME280;13354;48.174;11.566;2022-11-20T01:36:33;95183.88;;;6.53;80.31
25420;BME280;13354;48.174;11.566;2022-11-20T01:39:02;95189.25;;;6.37;80.96
25420;BME280;13354;48.174;11.566;2022-11-20T01:41:31;95186.16;;;6.56;80.71
25420;BME280;13354;48.174;11.566;2022-11-20T01:44:18;95184.78;;;6.45;80.82
25420;BME280;13354;48.174;11.566;2022-11-20T01:47:05;95185.34;;;6.56;80.23
25420;BME280;13354;48.174;11.566;2022-11-20T01:52:39;95186.84;;;6.50;80.44
25420;BME280;13354;48.174;11.566;2022-11-20T01:55:20;95189.69;;;6.63;80.57
25420;BME280;13354;48.174;11.566;2022-11-20T01:57:48;95192.13;;;6.65;79.67
25420;BME280;13354;48.174;11.566;2022-11-20T02:00:29;95183.25;;;6.81;79.81
25420;BME280;13354;48.174;11.566;2022-11-20T02:03:03;95183.34;;;6.72;79.69
25420;BME280;13354;48.174;11.566;2022-11-20T02:05:36;95181.16;;;6.61;79.95
25420;BME280;13354;48.174;11.566;2022-11-20T02:08:05;95177.81;;;6.67;80.46
25420;BME280;13354;48.174;11.566;2022-11-20T02:10:32;95186.53;;;6.68;80.08
25420;BME280;13354;48.174;11.566;2022-11-20T02:12:58;95185.00;;;6.36;81.09
25420;BME280;13354;48.174;11.566;2022-11-20T02:15:43;95186.13;;;6.41;80.93
25420;BME280;13354;48.174;11.566;2022-11-20T02:18:09;95178.34;;;6.63;79.66
25420;BME280;13354;48.174;11.566;2022-11-20T02:20:47;95182.22;;;6.37;80.81
25420;BME280;13354;48.174;11.566;2022-11-20T02:26:28;95192.44;;;6.32;81.28
25420;BME280;13354;48.174;11.566;2022-11-20T02:29:02;95184.41;;;6.48;81.08
25420;BME280;13354;48.174;11.566;2022-11-20T02:31:28;95184.47;;;6.40;80.96
25420;BME280;13354;48.174;11.566;2022-11-20T02:33:57;95182.31;;;6.44;81.69
25420;BME280;13354;48.174;11.566;2022-11-20T02:36:24;95181.38;;;6.37;81.45
25420;BME280;13354;48.174;11.566;2022-11-20T02:38:51;95186.38;;;6.32;81.59
25420;BME280;13354;48.174;11.566;2022-11-20T02:41:16;95179.66;;;6.44;81.23
25420;BME280;13354;48.174;11.566;2022-11-20T02:43:51;95186.38;;;6.32;81.77
25420;BME280;13354;48.174;11.566;2022-11-20T02:46:16;95191.28;;;6.35;81.74
25420;BME280;13354;48.174;11.566;2022-11-20T02:48:42;95187.50;;;6.52;80.04
25420;BME280;13354;48.174;11.566;2022-11-20T02:51:07;95190.88;;;6.61;79.64
25420;BME280;13354;48.174;11.566;2022-11-20T02:53:33;95187.28;;;6.39;79.93
25420;BME280;13354;48.174;11.566;2022-11-20T02:55:59;95191.72;;;6.38;79.81
25420;BME280;13354;48.174;11.566;2022-11-20T02:58:30;95194.91;;;6.34;80.50
25420;BME280;13354;48.174;11.566;2022-11-20T03:00:56;95186.00;;;6.35;80.23
25420;BME280;13354;48.174;11.566;2022-11-20T03:03:21;95184.09;;;6.28;80.38
25420;BME280;13354;48.174;11.566;2022-11-20T03:05:47;95185.13;;;6.42;79.47
25420;BME280;13354;48.174;11.566;2022-11-20T03:08:12;95186.91;;;6.27;80.25
25420;BME280;13354;48.174;11.566;2022-11-20T03:10:41;95184.91;;;6.29;79.16
25420;BME280;13354;48.174;11.566;2022-11-20T03:13:18;95181.13;;;6.46;78.76
25420;BME280;13354;48.174;11.566;2022-11-20T03:15:44;95181.94;;;6.47;78.72
25420;BME280;13354;48.174;11.566;2022-11-20T03:18:09;95183.16;;;6.44;78.48
25420;BME280;13354;48.174;11.566;2022-11-20T03:20:35;95185.31;;;6.41;78.69
25420;BME280;13354;48.174;11.566;2022-11-20T03:23:04;95179.78;;;6.50;77.82
25420;BME280;13354;48.174;11.566;2022-11-20T03:25:33;95181.59;;;6.50;78.48
25420;BME280;13354;48.174;11.566;2022-11-20T03:27:58;95177.22;;;6.42;78.05
25420;BME280;13354;48.174;11.566;2022-11-20T03:30:24;95174.34;;;6.37;77.93
25420;BME280;13354;48.174;11.566;2022-11-20T03:32:53;95176.66;;;6.32;77.90
25420;BME280;13354;48.174;11.566;2022-11-20T03:35:19;95171.06;;;6.35;77.95
25420;BME280;13354;48.174;11.566;2022-11-20T03:37:44;95175.84;;;6.32;77.72
25420;BME280;13354;48.174;11.566;2022-11-20T03:40:11;95167.63;;;6.49;76.71
25420;BME280;13354;48.174;11.566;2022-11-20T03:42:36;95174.97;;;6.54;76.81
25420;BME280;13354;48.174;11.566;2022-11-20T03:45:13;95170.72;;;6.53;76.98
25420;BME280;13354;48.174;11.566;2022-11-20T03:47:39;95174.25;;;6.45;76.55
25420;BME280;13354;48.174;11.566;2022-11-20T03:50:05;95185.72;;;6.29;77.23
25420;BME280;13354;48.174;11.566;2022-11-20T03:52:30;95173.72;;;6.50;76.72
25420;BME280;13354;48.174;11.566;2022-11-20T03:55:02;95179.66;;;6.44;76.77
25420;BME280;13354;48.174;11.566;2022-11-20T03:57:27;95181.00;;;6.25;77.65
25420;BME280;13354;48.174;11.566;2022-11-20T03:59:52;95189.22;;;6.45;76.40
25420;BME280;13354;48.174;11.566;2022-11-20T04:02:18;95189.09;;;6.38;76.66
25420;BME280;13354;48.174;11.566;2022-11-20T04:04:44;95191.97;;;6.28;77.19
25420;BME280;13354;48.174;11.566;2022-11-20T04:07:09;95192.75;;;6.37;77.51
25420;BME280;13354;48.174;11.566;2022-11-20T04:09:38;95187.81;;;6.34;77.44
25420;BME280;13354;48.174;11.566;2022-11-20T04:12:14;95189.47;;;6.35;76.37
25420;BME280;13354;48.174;11.566;2022-11-20T04:14:40;95187.53;;;6.29;76.63
25420;BME280;13354;48.174;11.566;2022-11-20T04:17:11;95178.25;;;6.18;76.77
25420;BME280;13354;48.174;11.566;2022-11-20T04:19:42;95189.19;;;6.07;77.24
25420;BME280;13354;48.174;11.566;2022-11-20T04:22:25;95188.03;;;6.10;76.85
25420;BME280;13354;48.174;11.566;2022-11-20T04:24:50;95185.34;;;6.33;75.26
25420;BME280;13354;48.174;11.566;2022-11-20T04:27:25;95181.38;;;6.37;75.80
25420;BME280;13354;48.174;11.566;2022-11-20T04:30:04;95183.81;;;6.23;76.40
25420;BME280;13354;48.174;11.566;2022-11-20T04:32:50;95189.47;;;6.12;76.57
25420;BME280;13354;48.174;11.566;2022-11-20T04:35:15;95191.84;;;6.45;75.52
25420;BME280;13354;48.174;11.566;2022-11-20T04:37:41;95184.84;;;6.37;75.88
25420;BME280;13354;48.174;11.566;2022-11-20T04:40:14;95184.28;;;6.27;76.40
25420;BME280;13354;48.174;11.566;2022-11-20T04:42:39;95184.19;;;6.35;75.89
25420;BME280;13354;48.174;11.566;2022-11-20T04:45:10;95186.59;;;6.22;76.46
25420;BME280;13354;48.174;11.566;2022-11-20T04:47:36;95188.00;;;6.33;76.25
25420;BME280;13354;48.174;11.566;2022-11-20T04:50:11;95187.56;;;6.44;76.19
25420;BME280;13354;48.174;11.566;2022-11-20T04:52:36;95191.44;;;6.33;76.46
25420;BME280;13354;48.174;11.566;2022-11-20T04:55:02;95192.31;;;6.48;75.93
25420;BME280;13354;48.174;11.566;2022-11-20T04:57:31;95199.09;;;6.43;75.99
25420;BME280;13354;48.174;11.566;2022-11-20T05:00:00;95197.09;;;6.45;76.07
25420;BME280;13354;48.174;11.566;2022-11-20T05:02:25;95194.00;;;6.41;76.38
25420;BME280;13354;48.174;11.566;2022-11-20T05:04:50;95191.22;;;6.58;75.72
25420;BME280;13354;48.174;11.566;2022-11-20T05:07:16;95190.75;;;6.54;75.62
25420;BME280;13354;48.174;11.566;2022-11-20T05:09:42;95194.38;;;6.38;75.99
25420;BME280;13354;48.174;11.566;2022-11-20T05:12:08;95183.84;;;6.38;76.45
25420;BME280;13354;48.174;11.566;2022-11-20T05:14:34;95184.47;;;6.40;76.08
25420;BME280;13354;48.174;11.566;2022-11-20T05:17:10;95182.41;;;6.50;76.15
25420;BME280;13354;48.174;11.566;2022-11-20T05:19:45;95191.84;;;6.45;76.53
25420;BME280;13354;48.174;11.566;2022-11-20T05:22:10;95190.94;;;6.52;75.93
25420;BME280;13354;48.174;11.566;2022-11-20T05:24:36;95191.31;;;6.49;75.97
25420;BME280;13354;48.174;11.566;2022-11-20T05:27:01;95194.38;;;6.38;76.46
25420;BME280;13354;48.174;11.566;2022-11-20T05:29:27;95190.13;;;6.52;76.18
25420;BME280;13354;48.174;11.566;2022-11-20T05:31:52;95195.09;;;6.47;76.23
25420;BME280;13354;48.174;11.566;2022-11-20T05:34:17;95192.66;;;6.45;76.52
25420;BME280;13354;48.174;11.566;2022-11-20T05:36:43;95190.56;;;6.18;77.32
25420;BME280;13354;48.174;11.566;2022-11-20T05:39:08;95193.16;;;6.26;77.58
25420;BME280;13354;48.174;11.566;2022-11-20T05:41:34;95189.75;;;6.17;77.52
25420;BME280;13354;48.174;11.566;2022-11-20T05:44:00;95188.19;;;6.31;77.07
25420;BME280;13354;48.174;11.566;2022-11-20T05:46:29;95194.19;;;6.40;76.74
25420;BME280;13354;48.174;11.566;2022-11-20T05:48:56;95192.16;;;6.27;77.47
25420;BME280;13354;48.174;11.566;2022-11-20T05:51:25;95195.94;;;6.24;76.98
25420;BME280;13354;48.174;11.566;2022-11-20T05:53:56;95192.19;;;6.42;76.22
25420;BME280;13354;48.174;11.566;2022-11-20T05:56:22;95189.59;;;6.19;76.63
25420;BME280;13354;48.174;11.566;2022-11-20T05:58:48;95191.81;;;6.30;76.31
25420;BME280;13354;48.174;11.566;2022-11-20T06:01:23;95189.53;;;6.27;76.29
25420;BME280;13354;48.174;11.566;2022-11-20T06:03:49;95190.16;;;6.29;76.67
25420;BME280;13354;48.174;11.566;2022-11-20T06:06:20;95193.56;;;6.15;77.08
25420;BME280;13354;48.174;11.566;2022-11-20T06:08:51;95200.06;;;6.04;77.47
25420;BME280;13354;48.174;11.566;2022-11-20T06:11:17;95199.38;;;6.25;77.01
25420;BME280;13354;48.174;11.566;2022-11-20T06:13:42;95197.69;;;6.32;76.29
25420;BME280;13354;48.174;11.566;2022-11-20T06:16:09;95198.53;;;6.10;76.79
25420;BME280;13354;48.174;11.566;2022-11-20T06:18:34;95190.38;;;6.04;76.49
25420;BME280;13354;48.174;11.566;2022-11-20T06:23:47;95197.94;;;5.99;76.64
25420;BME280;13354;48.174;11.566;2022-11-20T06:26:18;95195.31;;;5.99;76.41
25420;BME280;13354;48.174;11.566;2022-11-20T06:28:44;95197.38;;;6.12;75.81
25420;BME280;13354;48.174;11.566;2022-11-20T06:31:12;95199.63;;;5.92;75.74
25420;BME280;13354;48.174;11.566;2022-11-20T06:33:42;95198.75;;;6.00;75.41
25420;BME280;13354;48.174;11.566;2022-11-20T06:36:10;95199.13;;;5.89;75.54
25420;BME280;13354;48.174;11.566;2022-11-20T06:38:36;95210.13;;;5.92;75.10
25420;BME280;13354;48.174;11.566;2022-11-20T06:41:03;95208.22;;;6.09;74.61
25420;BME280;13354;48.174;11.566;2022-11-20T06:43:29;95203.19;;;5.99;74.28
25420;BME280;13354;48.174;11.566;2022-11-20T06:45:56;95208.63;;;5.98;74.32
25420;BME280;13354;48.174;11.566;2022-11-20T06:48:23;95209.09;;;6.01;73.63
25420;BME280;13354;48.174;11.566;2022-11-20T06:50:52;95211.91;;;5.92;74.09
25420;BME280;13354;48.174;11.566;2022-11-20T06:53:17;95212.09;;;5.90;74.46
25420;BME280;13354;48.174;11.566;2022-11-20T06:55:44;95218.00;;;6.00;73.03
25420;BME280;13354;48.174;11.566;2022-11-20T06:58:13;95219.50;;;5.95;73.48
25420;BME280;13354;48.174;11.566;2022-11-20T07:00:39;95225.78;;;5.86;74.27
25420;BME280;13354;48.174;11.566;2022-11-20T07:03:06;95225.69;;;6.02;73.20
25420;BME280;13354;48.174;11.566;2022-11-20T07:05:32;95235.03;;;6.04;73.01
25420;BME280;13354;48.174;11.566;2022-11-20T07:07:58;95230.47;;;5.98;72.71
25420;BME280;13354;48.174;11.566;2022-11-20T07:10:37;95226.38;;;5.96;72.98
25420;BME280;13354;48.174;11.566;2022-11-20T07:13:27;95229.31;;;6.01;72.76
25420;BME280;13354;48.174;11.566;2022-11-20T07:15:52;95228.44;;;6.09;71.99
25420;BME280;13354;48.174;11.566;2022-11-20T07:18:21;95235.91;;;5.89;72.88
25420;BME280;13354;48.174;11.566;2022-11-20T07:20:46;95233.78;;;5.92;72.86
25420;BME280;13354;48.174;11.566;2022-11-20T07:23:14;95235.25;;;5.95;73.34
25420;BME280;13354;48.174;11.566;2022-11-20T07:25:40;95234.44;;;6.17;72.42
25420;BME280;13354;48.174;11.566;2022-11-20T07:28:17;95241.41;;;6.10;72.15
25420;BME280;13354;48.174;11.566;2022-11-20T07:30:52;95239.81;;;6.24;71.98
25420;BME280;13354;48.174;11.566;2022-11-20T07:33:18;95241.41;;;6.10;72.69
25420;BME280;13354;48.174;11.566;2022-11-20T07:35:44;95249.53;;;6.00;72.34
25420;BME280;13354;48.174;11.566;2022-11-20T07:38:10;95242.69;;;6.14;72.80
25420;BME280;13354;48.174;11.566;2022-11-20T07:40:36;95235.38;;;6.01;72.68
25420;BME280;13354;48.174;11.566;2022-11-20T07:43:01;95237.72;;;6.19;72.08
25420;BME280;13354;48.174;11.566;2022-11-20T07:45:29;95234.97;;;6.13;72.84
25420;BME280;13354;48.174;11.566;2022-11-20T07:47:55;95237.59;;;6.13;73.07
25420;BME280;13354;48.174;11.566;2022-11-20T07:50:20;95240.97;;;6.21;72.65
25420;BME280;13354;48.174;11.566;2022-11-20T07:52:46;95244.16;;;6.17;72.61
25420;BME280;13354;48.174;11.566;2022-11-20T07:55:13;95248.25;;;6.19;72.85
25420;BME280;13354;48.174;11.566;2022-11-20T07:57:41;95236.19;;;6.25;72.64
25420;BME280;13354;48.174;11.566;2022-11-20T08:00:09;95240.09;;;6.29;73.04
25420;BME280;13354;48.174;11.566;2022-11-20T08:02:37;95248.66;;;6.31;72.73
25420;BME280;13354;48.174;11.566;2022-11-20T08:05:07;95246.94;;;6.38;72.63
25420;BME280;13354;48.174;11.566;2022-11-20T08:07:41;95248.00;;;6.29;73.20
25420;BME280;13354;48.174;11.566;2022-11-20T08:10:10;95252.88;;;6.55;72.25
25420;BME280;13354;48.174;11.566;2022-11-20T08:15:49;95253.56;;;6.34;73.36
25420;BME280;13354;48.174;11.566;2022-11-20T08:18:16;95257.41;;;6.46;72.77
25420;BME280;13354;48.174;11.566;2022-11-20T08:20:42;95255.41;;;6.48;73.03
25420;BME280;13354;48.174;11.566;2022-11-20T08:23:08;95257.06;;;6.26;73.38
25420;BME280;13354;48.174;11.566;2022-11-20T08:25:37;95262.38;;;6.41;73.03
25420;BME280;13354;48.174;11.566;2022-11-20T08:28:05;95252.41;;;6.51;72.55
25420;BME280;13354;48.174;11.566;2022-11-20T08:30:32;95259.41;;;6.44;72.48
25420;BME280;13354;48.174;11.566;2022-11-20T08:33:07;95263.34;;;6.63;71.70
25420;BME280;13354;48.174;11.566;2022-11-20T08:35:34;95247.22;;;6.43;72.63
25420;BME280;13354;48.174;11.566;2022-11-20T08:38:01;95258.09;;;6.63;72.11
25420;BME280;13354;48.174;11.566;2022-11-20T08:40:31;95251.13;;;6.70;71.61
25420;BME280;13354;48.174;11.566;2022-11-20T08:42:57;95257.25;;;6.63;71.86
25420;BME280;13354;48.174;11.566;2022-11-20T08:45:22;95254.25;;;6.66;71.38
25420;BME280;13354;48.174;11.566;2022-11-20T08:47:51;95254.53;;;6.56;71.35
25420;BME280;13354;48.174;11.566;2022-11-20T08:50:19;95255.38;;;6.71;70.76
25420;BME280;13354;48.174;11.566;2022-11-20T08:52:44;95257.78;;;6.58;71.19
25420;BME280;13354;48.174;11.566;2022-11-20T08:55:13;95257.47;;;6.76;70.91
25420;BME280;13354;48.174;11.566;2022-11-20T08:57:38;95259.72;;;6.64;71.07
25420;BME280;13354;48.174;11.566;2022-11-20T09:00:06;95255.53;;;6.70;71.84
25420;BME280;13354;48.174;11.566;2022-11-20T09:02:32;95260.47;;;6.88;70.33
25420;BME280;13354;48.174;11.566;2022-11-20T09:05:16;95254.59;;;6.86;69.87
25420;BME280;13354;48.174;11.566;2022-11-20T09:07:41;95257.75;;;6.81;70.49
25420;BME280;13354;48.174;11.566;2022-11-20T09:10:07;95253.75;;;6.70;71.11
25420;BME280;13354;48.174;11.566;2022-11-20T09:12:33;95256.03;;;6.88;72.22
25420;BME280;13354;48.174;11.566;2022-11-20T09:14:58;95253.97;;;6.98;69.94
25420;BME280;13354;48.174;11.566;2022-11-20T09:17:24;95254.69;;;6.92;69.95
25420;BME280;13354;48.174;11.566;2022-11-20T09:19:49;95257.34;;;7.22;68.42
25420;BME280;13354;48.174;11.566;2022-11-20T09:22:14;95250.63;;;7.05;68.55
25420;BME280;13354;48.174;11.566;2022-11-20T09:24:40;95256.50;;;7.21;68.87
25420;BME280;13354;48.174;11.566;2022-11-20T09:27:06;95251.91;;;7.23;68.90
25420;BME280;13354;48.174;11.566;2022-11-20T09:29:32;95240.09;;;7.19;67.63
25420;BME280;13354;48.174;11.566;2022-11-20T09:31:57;95234.72;;;7.28;67.80
25420;BME280;13354;48.174;11.566;2022-11-20T09:34:23;95242.38;;;7.22;67.09
25420;BME280;13354;48.174;11.566;2022-11-20T09:36:56;95240.72;;;7.21;67.47
25420;BME280;13354;48.174;11.566;2022-11-20T09:39:21;95245.63;;;7.24;67.06
25420;BME280;13354;48.174;11.566;2022-11-20T09:42:03;95241.47;;;7.30;66.48
25420;BME280;13354;48.174;11.566;2022-11-20T09:56:20;95231.84;;;7.37;65.40
25420;BME280;13354;48.174;11.566;2022-11-20T09:58:48;95224.56;;;7.39;64.96
25420;BME280;13354;48.174;11.566;2022-11-20T10:01:36;95226.38;;;7.39;65.69
25420;BME280;13354;48.174;11.566;2022-11-20T10:04:22;95218.19;;;7.48;65.08
25420;BME280;13354;48.174;11.566;2022-11-20T10:07:22;95217.00;;;7.36;65.42
25420;BME280;13354;48.174;11.566;2022-11-20T10:09:56;95218.53;;;7.60;65.27
25420;BME280;13354;48.174;11.566;2022-11-20T10:12:31;95216.22;;;7.72;65.47
25420;BME280;13354;48.174;11.566;2022-11-20T10:15:41;95214.91;;;7.97;63.41
25420;BME280;13354;48.174;11.566;2022-11-20T10:18:51;95209.25;;;8.01;63.61
25420;BME280;13354;48.174;11.566;2022-11-20T10:21:41;95216.97;;;8.02;63.18
25420;BME280;13354;48.174;11.566;2022-11-20T10:24:48;95221.44;;;8.02;63.27
25420;BME280;13354;48.174;11.566;2022-11-20T10:30:00;95217.38;;;7.99;63.81
25420;BME280;13354;48.174;11.566;2022-11-20T10:32:38;95215.13;;;7.81;63.82
25420;BME280;13354;48.174;11.566;2022-11-20T10:35:14;95214.66;;;7.92;63.72
25420;BME280;13354;48.174;11.566;2022-11-20T10:37:44;95219.66;;;7.87;64.55
25420;BME280;13354;48.174;11.566;2022-11-20T10:45:45;95209.66;;;7.83;64.90
25420;BME280;13354;48.174;11.566;2022-11-20T10:48:17;95210.06;;;8.01;64.24
25420;BME280;13354;48.174;11.566;2022-11-20T10:53:42;95205.53;;;8.16;63.49
25420;BME280;13354;48.174;11.566;2022-11-20T11:02:01;95206.41;;;8.02;62.46
25420;BME280;13354;48.174;11.566;2022-11-20T11:07:10;95205.38;;;7.96;62.63
25420;BME280;13354;48.174;11.566;2022-11-20T11:09:42;95195.13;;;7.87;62.74
25420;BME280;13354;48.174;11.566;2022-11-20T11:12:14;95196.84;;;7.80;63.91
25420;BME280;13354;48.174;11.566;2022-11-20T11:14:44;95194.81;;;7.96;63.86
25420;BME280;13354;48.174;11.566;2022-11-20T11:20:17;95187.56;;;8.41;62.99
25420;BME280;13354;48.174;11.566;2022-11-20T11:22:45;95192.25;;;8.46;63.20
25420;BME280;13354;48.174;11.566;2022-11-20T11:25:33;95179.38;;;8.36;62.63
25420;BME280;13354;48.174;11.566;2022-11-20T11:28:03;95185.34;;;8.23;62.84
25420;BME280;13354;48.174;11.566;2022-11-20T11:30:39;95191.69;;;8.29;62.26
25420;BME280;13354;48.174;11.566;2022-11-20T11:33:09;95184.59;;;8.30;62.33
25420;BME280;13354;48.174;11.566;2022-11-20T11:35:44;95186.28;;;8.16;62.84
25420;BME280;13354;48.174;11.566;2022-11-20T11:38:27;95181.69;;;8.24;62.82
25420;BME280;13354;48.174;11.566;2022-11-20T11:40:55;95173.72;;;8.39;62.65
25420;BME280;13354;48.174;11.566;2022-11-20T11:43:30;95181.50;;;8.26;63.09
25420;BME280;13354;48.174;11.566;2022-11-20T11:54:30;95180.47;;;7.99;63.39
25420;BME280;13354;48.174;11.566;2022-11-20T12:00:13;95192.13;;;8.11;63.36
25420;BME280;13354;48.174;11.566;2022-11-20T12:05:36;95178.13;;;8.11;63.50
25420;BME280;13354;48.174;11.566;2022-11-20T12:14:11;95189.66;;;7.67;67.69
25420;BME280;13354;48.174;11.566;2022-11-20T12:16:39;95188.31;;;7.56;68.86
25420;BME280;13354;48.174;11.566;2022-11-20T12:19:10;95194.41;;;7.42;69.90
25420;BME280;13354;48.174;11.566;2022-11-20T12:30:00;95183.50;;;7.45;69.67
25420;BME280;13354;48.174;11.566;2022-11-20T12:38:11;95178.81;;;7.40;69.02
25420;BME280;13354;48.174;11.566;2022-11-20T12:47:23;95175.31;;;7.40;69.97
25420;BME280;13354;48.174;11.566;2022-11-20T12:50:17;95173.31;;;7.57;70.42
25420;BME280;13354;48.174;11.566;2022-11-20T12:52:56;95165.72;;;7.68;69.77
25420;BME280;13354;48.174;11.566;2022-11-20T13:00:30;95173.91;;;7.37;69.82
25420;BME280;13354;48.174;11.566;2022-11-20T13:05:55;95168.00;;;7.35;69.77
25420;BME280;13354;48.174;11.566;2022-11-20T13:08:28;95165.91;;;7.31;70.41
25420;BME280;13354;48.174;11.566;2022-11-20T13:11:26;95183.44;;;7.23;71.10
25420;BME280;13354;48.174;11.566;2022-11-20T13:14:07;95171.47;;;7.21;72.11
25420;BME280;13354;48.174;11.566;2022-11-20T13:16:40;95166.56;;;7.18;72.44
25420;BME280;13354;48.174;11.566;2022-11-20T13:19:11;95166.56;;;7.18;72.34
25420;BME280;13354;48.174;11.566;2022-11-20T13:21:39;95163.50;;;7.14;71.74
25420;BME280;13354;48.174;11.566;2022-11-20T13:24:06;95166.56;;;7.18;72.76
25420;BME280;13354;48.174;11.566;2022-11-20T13:26:32;95156.94;;;7.10;72.67
25420;BME280;13354;48.174;11.566;2022-11-20T13:29:11;95170.41;;;7.00;72.82
25420;BME280;13354;48.174;11.566;2022-11-20T13:31:41;95145.50;;;7.03;72.51
25420;BME280;13354;48.174;11.566;2022-11-20T13:34:14;95147.53;;;7.01;73.04
25420;BME280;13354;48.174;11.566;2022-11-20T13:36:50;95156.69;;;6.90;73.13
25420;BME280;13354;48.174;11.566;2022-11-20T13:39:29;95146.53;;;6.87;73.84
25420;BME280;13354;48.174;11.566;2022-11-20T13:41:57;95145.78;;;7.08;73.25
25420;BME280;13354;48.174;11.566;2022-11-20T13:44:31;95135.44;;;6.92;74.00
25420;BME280;13354;48.174;11.566;2022-11-20T13:46:58;95137.81;;;7.01;74.18
25420;BME280;13354;48.174;11.566;2022-11-20T13:49:33;95135.91;;;6.95;74.47
25420;BME280;13354;48.174;11.566;2022-11-20T13:58:12;95147.63;;;7.08;73.50
25420;BME280;13354;48.174;11.566;2022-11-20T14:00:48;95139.16;;;7.12;73.38
25420;BME280;13354;48.174;11.566;2022-11-20T14:03:20;95149.34;;;7.00;74.00
25420;BME280;13354;48.174;11.566;2022-11-20T14:05:53;95134.81;;;7.05;73.50
25420;BME280;13354;48.174;11.566;2022-11-20T14:08:28;95128.25;;;7.30;72.73
25420;BME280;13354;48.174;11.566;2022-11-20T14:11:27;95130.34;;;7.20;73.18
25420;BME280;13354;48.174;11.566;2022-11-20T14:16:26;95140.34;;;7.10;73.41
25420;BME280;13354;48.174;11.566;2022-11-20T14:18:53;95144.06;;;7.15;73.41
25420;BME280;13354;48.174;11.566;2022-11-20T14:21:27;95137.44;;;7.05;73.27
25420;BME280;13354;48.174;11.566;2022-11-20T14:24:06;95144.16;;;7.07;73.63
25420;BME280;13354;48.174;11.566;2022-11-20T14:26:35;95143.78;;;6.95;73.99
25420;BME280;13354;48.174;11.566;2022-11-20T14:29:01;95137.78;;;7.16;73.60
25420;BME280;13354;48.174;11.566;2022-11-20T14:31:27;95135.94;;;7.32;73.23
25420;BME280;13354;48.174;11.566;2022-11-20T14:33:53;95135.41;;;7.21;73.63
25420;BME280;13354;48.174;11.566;2022-11-20T14:36:24;95142.84;;;7.18;73.01
25420;BME280;13354;48.174;11.566;2022-11-20T14:38:54;95142.94;;;7.24;72.49
25420;BME280;13354;48.174;11.566;2022-11-20T14:41:24;95139.50;;;7.24;72.42
25420;BME280;13354;48.174;11.566;2022-11-20T14:43:58;95135.69;;;7.26;72.24
25420;BME280;13354;48.174;11.566;2022-11-20T14:46:24;95130.16;;;7.21;72.47
25420;BME280;13354;48.174;11.566;2022-11-20T14:48:54;95131.88;;;7.29;72.18
25420;BME280;13354;48.174;11.566;2022-11-20T14:53:53;95128.53;;;7.20;72.49
25420;BME280;13354;48.174;11.566;2022-11-20T14:56:23;95132.06;;;7.28;71.64
25420;BME280;13354;48.174;11.566;2022-11-20T14:58:56;95131.34;;;7.19;71.83
25420;BME280;13354;48.174;11.566;2022-11-20T15:01:27;95136.88;;;7.09;71.89
25420;BME280;13354;48.174;11.566;2022-11-20T15:04:05;95126.34;;;7.24;71.05
25420;BME280;13354;48.174;11.566;2022-11-20T15:06:30;95133.25;;;6.95;71.31